メインページ
METAR-TAF:

METAR-TAF

空港 :

カイロ国際空港

カイロ, エジプト

緯度: 30-08N, 経度: 031-24E, 海抜: 64m

現時点の気象観測

当レポートは27分前の22:30(UTC)に作成
北東の風 8kt
気温 26°C
湿度 65%
気圧 1009 hPa
視程10km以上
1,500メートル以下は雲なし、積乱雲なし

METAR: HECA 182230Z 05008KT CAVOK 26/19 Q1009 NOSIG

時間: 00:57 (22:57 UTC)

予報

当レポートは5時間57分前の17:00(UTC)に作成
予報は18日の 18時(UTC)から 19日の 24時(UTC)まで有効
北/北西の風 10kt
視程10km以上
1,500メートル以下は雲なし、積乱雲なし

TAF: HECA 181700Z 1818/1924 34010KT CAVOK

4,000以上の空港の気象観測と天気予報(METAR報とTAF報)

利用可能な観測所は地図上に黄色い丸と赤い丸で示す。

丸の上にカーソルを重ねると観測所名を参照できる。

次にクリックすると気象観測と天気予報を参照できる。

マップの切り替え:黒色「×」印の緑ボタンをクリックして拡大、「-」印の緑ボタンをクリックして縮小、緑色の三角印をクリックして隣りの地図に切り替え


METAR-TAF: